Time;durP1;ratioP1;P1;durP2;ratioP2;P2;SDS_P1;SDS_P2;PMS_P1;PMS_P2;Temp;Humidity;BMP_temperature;BMP_pressure;BME280_temperature;BME280_humidity;BME280_pressure;Samples;Min_cycle;Max_cycle;Signal;HPM_P1;HPM_P2
2022/01/15 00:02:24;;;;;;;17.73;10.02;;;;;;;;;;5048895;28;20579;-70
2022/01/15 00:04:49;;;;;;;18.35;10.48;;;;;;;;;;5050110;28;20039;-70
2022/01/15 00:07:15;;;;;;;17.92;8.95;;;;;;;;;;5052066;28;20515;-70
2022/01/15 00:09:42;;;;;;;20.70;10.02;;;;;;;;;;5051724;28;20070;-70
2022/01/15 00:12:09;;;;;;;19.52;10.27;;;;;;;;;;5034927;28;20123;-70
2022/01/15 00:14:39;;;;;;;15.70;9.60;;;;;;;;;;5035787;28;20036;-69
2022/01/15 00:17:07;;;;;;;16.90;10.13;;;;;;;;;;5055874;28;20040;-70
2022/01/15 00:19:44;;;;;;;17.13;9.50;;;;;;;;;;5056654;28;20024;-70
2022/01/15 00:22:13;;;;;;;18.10;9.90;;;;;;;;;;5055936;28;20146;-70
2022/01/15 00:24:38;;;;;;;18.92;8.88;;;;;;;;;;5054366;28;20040;-70
2022/01/15 00:27:04;;;;;;;21.75;9.88;;;;;;;;;;5054420;28;20066;-70
2022/01/15 00:29:31;;;;;;;17.90;9.45;;;;;;;;;;5051774;28;20052;-70
2022/01/15 00:31:57;;;;;;;15.95;9.68;;;;;;;;;;5052219;28;20040;-70
2022/01/15 00:34:22;;;;;;;19.42;10.30;;;;;;;;;;5035469;28;20497;-70
2022/01/15 00:36:47;;;;;;;18.85;10.88;;;;;;;;;;5052339;28;20056;-69
2022/01/15 00:39:13;;;;;;;17.48;9.48;;;;;;;;;;5049949;28;20132;-70
2022/01/15 00:41:38;;;;;;;17.25;8.70;;;;;;;;;;5052841;28;20116;-70
2022/01/15 00:44:03;;;;;;;14.52;8.80;;;;;;;;;;5051037;28;20063;-70
2022/01/15 00:46:29;;;;;;;17.08;9.60;;;;;;;;;;5053789;28;20072;-70
2022/01/15 00:48:54;;;;;;;16.75;9.48;;;;;;;;;;5047353;28;20064;-69
2022/01/15 00:51:19;;;;;;;14.45;8.65;;;;;;;;;;5050491;28;20465;-70
2022/01/15 00:53:45;;;;;;;16.08;9.00;;;;;;;;;;5051408;28;20025;-70
2022/01/15 00:56:10;;;;;;;16.75;8.45;;;;;;;;;;5051150;28;20056;-70
2022/01/15 00:58:35;;;;;;;18.95;8.95;;;;;;;;;;5052568;28;20079;-70
2022/01/15 01:01:00;;;;;;;19.67;9.65;;;;;;;;;;5048346;28;20124;-69
2022/01/15 01:03:26;;;;;;;24.00;11.13;;;;;;;;;;5051567;28;20032;-70
2022/01/15 01:05:51;;;;;;;15.27;9.90;;;;;;;;;;5053454;28;20020;-69
2022/01/15 01:08:16;;;;;;;19.27;10.65;;;;;;;;;;5053689;28;20066;-69
2022/01/15 01:10:55;;;;;;;17.75;10.00;;;;;;;;;;5036075;28;20056;-69
2022/01/15 01:24:22;;;;;;;23.40;12.18;;;;;;;;;;5036798;28;20144;-69
2022/01/15 01:27:01;;;;;;;22.77;12.40;;;;;;;;;;5052437;28;20486;-70
2022/01/15 01:32:07;;;;;;;15.02;9.82;;;;;;;;;;5051550;28;20518;-69
2022/01/15 01:34:35;;;;;;;18.42;10.32;;;;;;;;;;5051023;28;20029;-69
2022/01/15 01:39:37;;;;;;;17.13;9.98;;;;;;;;;;5050842;28;20124;-69
2022/01/15 01:42:12;;;;;;;15.18;9.30;;;;;;;;;;5050875;28;20032;-70
2022/01/15 01:44:41;;;;;;;12.43;8.73;;;;;;;;;;5047625;28;20044;-69
2022/01/15 01:47:19;;;;;;;13.38;8.25;;;;;;;;;;5051730;28;20109;-69
2022/01/15 01:49:44;;;;;;;14.20;8.27;;;;;;;;;;5052954;28;20087;-70
2022/01/15 01:52:10;;;;;;;13.90;8.15;;;;;;;;;;5049510;28;20028;-69
2022/01/15 01:54:35;;;;;;;13.77;8.77;;;;;;;;;;5048162;28;20031;-69
2022/01/15 01:57:00;;;;;;;12.73;8.82;;;;;;;;;;5048779;28;20025;-69
2022/01/15 01:59:27;;;;;;;14.40;8.43;;;;;;;;;;5051572;28;20032;-69
2022/01/15 02:01:52;;;;;;;17.92;8.32;;;;;;;;;;5048791;28;20037;-70
2022/01/15 02:04:18;;;;;;;14.15;8.95;;;;;;;;;;5035378;28;20040;-69
2022/01/15 02:06:43;;;;;;;15.80;9.38;;;;;;;;;;5049715;28;20356;-69
2022/01/15 02:09:09;;;;;;;16.85;10.57;;;;;;;;;;5052607;28;20678;-69
2022/01/15 02:11:34;;;;;;;15.73;9.15;;;;;;;;;;5050490;28;20483;-69
2022/01/15 02:13:59;;;;;;;14.75;8.63;;;;;;;;;;5050787;28;20079;-69
2022/01/15 02:16:25;;;;;;;16.83;9.02;;;;;;;;;;5048264;28;20139;-69
2022/01/15 02:18:53;;;;;;;19.23;9.45;;;;;;;;;;5053329;28;20475;-69
2022/01/15 02:23:45;;;;;;;15.85;9.98;;;;;;;;;;5050668;28;20044;-70
2022/01/15 02:26:16;;;;;;;14.07;8.68;;;;;;;;;;5038503;28;20037;-70
2022/01/15 02:28:43;;;;;;;15.48;9.40;;;;;;;;;;5048884;28;20166;-69
2022/01/15 02:31:09;;;;;;;16.73;8.88;;;;;;;;;;5032055;28;20418;-70
2022/01/15 02:33:35;;;;;;;13.98;9.32;;;;;;;;;;5052056;28;20676;-70
2022/01/15 02:36:00;;;;;;;22.05;10.05;;;;;;;;;;5047964;28;20045;-69
2022/01/15 02:38:26;;;;;;;14.73;8.75;;;;;;;;;;5047871;28;20135;-70
2022/01/15 02:40:51;;;;;;;14.00;8.82;;;;;;;;;;5051843;28;20025;-70
2022/01/15 02:43:19;;;;;;;14.05;9.20;;;;;;;;;;5035315;28;20123;-69
2022/01/15 02:45:54;;;;;;;16.30;9.95;;;;;;;;;;5050666;28;20035;-70
2022/01/15 02:48:19;;;;;;;16.02;9.60;;;;;;;;;;5047998;28;20115;-70
2022/01/15 02:50:45;;;;;;;15.15;9.30;;;;;;;;;;5049032;28;20043;-70
2022/01/15 02:53:11;;;;;;;15.48;9.00;;;;;;;;;;5051532;28;20028;-69
2022/01/15 02:55:47;;;;;;;13.18;8.45;;;;;;;;;;5035735;28;20027;-69
2022/01/15 02:58:13;;;;;;;13.55;8.23;;;;;;;;;;5047861;28;20386;-69
2022/01/15 03:00:38;;;;;;;13.40;8.35;;;;;;;;;;5052139;28;20041;-70
2022/01/15 03:03:04;;;;;;;17.35;9.50;;;;;;;;;;5069671;28;20109;-70
2022/01/15 03:05:29;;;;;;;20.05;9.77;;;;;;;;;;5053625;28;20034;-70
2022/01/15 03:07:54;;;;;;;13.63;9.13;;;;;;;;;;5052732;28;20320;-69
2022/01/15 03:10:20;;;;;;;15.07;9.60;;;;;;;;;;5052929;28;20021;-70
2022/01/15 03:12:45;;;;;;;19.58;11.07;;;;;;;;;;5053083;28;20080;-69
2022/01/15 03:15:17;;;;;;;18.88;10.57;;;;;;;;;;5038362;28;20107;-69
2022/01/15 03:17:42;;;;;;;19.70;11.43;;;;;;;;;;5051117;28;20571;-70
2022/01/15 03:20:08;;;;;;;16.65;9.95;;;;;;;;;;5052841;28;20028;-69
2022/01/15 03:22:33;;;;;;;15.55;10.50;;;;;;;;;;5051635;28;20397;-70
2022/01/15 03:24:58;;;;;;;16.27;9.55;;;;;;;;;;5052154;28;20021;-70
2022/01/15 03:27:24;;;;;;;18.33;9.70;;;;;;;;;;5046811;28;20060;-70
2022/01/15 03:29:52;;;;;;;13.48;9.48;;;;;;;;;;5052813;28;20063;-69
2022/01/15 03:32:18;;;;;;;17.00;9.65;;;;;;;;;;5070262;28;20837;-69
2022/01/15 03:34:44;;;;;;;18.95;9.75;;;;;;;;;;5053718;28;20021;-69
2022/01/15 03:37:09;;;;;;;16.75;9.88;;;;;;;;;;5053834;28;20031;-69
2022/01/15 03:39:35;;;;;;;15.65;9.57;;;;;;;;;;5052607;28;20067;-70
2022/01/15 03:42:01;;;;;;;14.18;9.50;;;;;;;;;;5055679;28;20124;-70
2022/01/15 03:44:26;;;;;;;16.08;9.43;;;;;;;;;;5054837;28;20461;-70
2022/01/15 03:46:51;;;;;;;16.95;10.35;;;;;;;;;;5050975;28;20032;-69
2022/01/15 03:49:17;;;;;;;16.80;9.63;;;;;;;;;;5053983;28;20108;-70
2022/01/15 03:51:42;;;;;;;19.13;10.38;;;;;;;;;;5052411;28;20091;-70
2022/01/15 03:54:07;;;;;;;19.33;10.98;;;;;;;;;;5052074;28;20078;-70
2022/01/15 03:56:33;;;;;;;21.17;12.05;;;;;;;;;;5050990;28;20474;-70
2022/01/15 03:58:58;;;;;;;21.42;11.98;;;;;;;;;;5052306;28;20550;-70
2022/01/15 04:01:23;;;;;;;19.52;11.93;;;;;;;;;;5051993;28;20547;-70
2022/01/15 04:03:49;;;;;;;24.92;12.18;;;;;;;;;;5052100;28;20033;-70
2022/01/15 04:06:14;;;;;;;21.13;11.68;;;;;;;;;;5056027;28;20142;-70
2022/01/15 04:08:39;;;;;;;16.08;10.30;;;;;;;;;;5055009;28;20024;-69
2022/01/15 04:11:05;;;;;;;15.25;9.20;;;;;;;;;;5053925;28;20422;-69
2022/01/15 04:13:30;;;;;;;14.52;9.27;;;;;;;;;;5051545;28;20771;-69
2022/01/15 04:15:56;;;;;;;16.60;9.70;;;;;;;;;;5050923;28;20119;-71
2022/01/15 04:18:22;;;;;;;16.40;10.30;;;;;;;;;;5055335;28;20143;-71
2022/01/15 04:20:48;;;;;;;18.92;10.60;;;;;;;;;;5054470;28;20021;-71
2022/01/15 04:23:13;;;;;;;17.38;10.32;;;;;;;;;;5053707;28;20033;-71
2022/01/15 04:25:39;;;;;;;21.05;10.98;;;;;;;;;;5052878;28;20610;-71
2022/01/15 04:28:08;;;;;;;20.05;10.50;;;;;;;;;;5051906;28;20033;-71
2022/01/15 04:30:34;;;;;;;18.17;9.50;;;;;;;;;;5050889;28;20090;-71
2022/01/15 04:32:59;;;;;;;16.00;9.77;;;;;;;;;;5053087;28;20020;-71
2022/01/15 04:35:24;;;;;;;15.45;8.48;;;;;;;;;;5051717;28;20064;-71
2022/01/15 04:37:53;;;;;;;15.85;8.63;;;;;;;;;;5051916;28;20534;-71
2022/01/15 04:40:19;;;;;;;18.80;9.73;;;;;;;;;;5050290;28;20072;-71
2022/01/15 04:42:44;;;;;;;17.52;9.55;;;;;;;;;;5053777;28;20558;-71
2022/01/15 04:45:10;;;;;;;16.25;9.38;;;;;;;;;;5052245;28;20036;-70
2022/01/15 04:47:36;;;;;;;16.55;10.25;;;;;;;;;;5053387;28;20164;-70
2022/01/15 04:50:03;;;;;;;15.00;8.80;;;;;;;;;;5050176;28;20403;-70
2022/01/15 04:52:28;;;;;;;18.83;10.18;;;;;;;;;;5051535;28;20028;-71
2022/01/15 04:54:53;;;;;;;16.92;9.63;;;;;;;;;;5050063;28;20051;-71
2022/01/15 04:57:19;;;;;;;17.45;9.55;;;;;;;;;;5051769;28;20097;-70
2022/01/15 04:59:44;;;;;;;18.50;10.40;;;;;;;;;;5053002;28;20021;-71
2022/01/15 05:02:09;;;;;;;17.85;11.00;;;;;;;;;;5051509;28;20067;-71
2022/01/15 05:04:35;;;;;;;18.20;9.85;;;;;;;;;;5051797;28;20108;-71
2022/01/15 05:07:00;;;;;;;14.20;9.18;;;;;;;;;;5050447;28;20434;-70
2022/01/15 05:09:25;;;;;;;14.07;9.07;;;;;;;;;;5051613;28;20100;-70
2022/01/15 05:12:09;;;;;;;18.90;8.65;;;;;;;;;;5050942;28;20025;-71
2022/01/15 05:14:35;;;;;;;14.88;9.75;;;;;;;;;;5054264;28;20034;-70
2022/01/15 05:17:02;;;;;;;15.38;8.80;;;;;;;;;;5052923;28;20251;-71
2022/01/15 05:19:27;;;;;;;12.65;8.25;;;;;;;;;;5049816;28;20060;-71
2022/01/15 05:21:55;;;;;;;14.13;8.27;;;;;;;;;;5050062;28;20024;-71
2022/01/15 05:24:20;;;;;;;12.73;7.78;;;;;;;;;;5069304;28;20078;-70
2022/01/15 05:26:46;;;;;;;15.60;9.15;;;;;;;;;;5054273;28;20037;-71
2022/01/15 05:29:11;;;;;;;11.95;8.13;;;;;;;;;;5053643;28;20029;-70
2022/01/15 05:31:36;;;;;;;14.02;8.18;;;;;;;;;;5049595;28;20040;-70
2022/01/15 05:34:02;;;;;;;10.73;7.45;;;;;;;;;;5049432;28;20427;-70
2022/01/15 05:36:27;;;;;;;10.50;7.20;;;;;;;;;;5053353;28;20419;-68
2022/01/15 05:38:52;;;;;;;10.10;6.38;;;;;;;;;;5068747;28;20063;-69
2022/01/15 05:41:18;;;;;;;7.45;5.82;;;;;;;;;;5067618;28;20085;-69
2022/01/15 05:43:43;;;;;;;9.05;6.25;;;;;;;;;;5068104;28;20028;-68
2022/01/15 05:46:08;;;;;;;7.63;5.57;;;;;;;;;;5068562;28;20510;-68
2022/01/15 05:48:34;;;;;;;7.93;5.75;;;;;;;;;;5067300;28;20021;-68
2022/01/15 05:50:59;;;;;;;7.57;5.15;;;;;;;;;;5068579;28;20105;-68
2022/01/15 05:53:24;;;;;;;7.75;5.50;;;;;;;;;;5068381;28;20470;-68
2022/01/15 05:55:50;;;;;;;8.43;5.57;;;;;;;;;;5068423;28;20408;-68
2022/01/15 05:58:15;;;;;;;9.70;5.95;;;;;;;;;;5066799;28;20074;-68
2022/01/15 06:00:40;;;;;;;9.57;6.40;;;;;;;;;;5049352;28;20045;-69
2022/01/15 06:03:06;;;;;;;10.85;6.55;;;;;;;;;;5068350;28;20024;-68
2022/01/15 06:05:31;;;;;;;14.98;6.65;;;;;;;;;;5066855;28;20024;-68
2022/01/15 06:07:56;;;;;;;10.20;7.10;;;;;;;;;;5066820;28;20070;-69
2022/01/15 06:10:22;;;;;;;11.00;6.40;;;;;;;;;;5068214;28;20028;-68
2022/01/15 06:12:47;;;;;;;10.65;6.82;;;;;;;;;;5068476;28;20036;-69
2022/01/15 06:15:13;;;;;;;11.13;7.53;;;;;;;;;;5066562;28;20017;-68
2022/01/15 06:17:39;;;;;;;12.93;8.02;;;;;;;;;;5049722;28;20032;-68
2022/01/15 06:20:05;;;;;;;14.18;8.57;;;;;;;;;;5050175;28;20387;-68
2022/01/15 06:22:30;;;;;;;16.90;9.25;;;;;;;;;;5049848;28;20040;-68
2022/01/15 06:24:55;;;;;;;16.23;9.38;;;;;;;;;;5066337;28;20031;-68
2022/01/15 06:27:21;;;;;;;22.42;9.93;;;;;;;;;;5068172;28;20420;-69
2022/01/15 06:29:46;;;;;;;19.20;9.80;;;;;;;;;;5066543;28;20025;-69
2022/01/15 06:32:12;;;;;;;20.65;11.13;;;;;;;;;;5066871;28;20131;-68
2022/01/15 06:34:37;;;;;;;18.08;10.40;;;;;;;;;;5066251;28;20035;-69
2022/01/15 06:37:04;;;;;;;20.42;10.00;;;;;;;;;;5066221;28;20467;-68
2022/01/15 06:39:30;;;;;;;17.88;10.05;;;;;;;;;;5066314;28;20020;-68
2022/01/15 06:41:55;;;;;;;16.52;10.30;;;;;;;;;;5043477;28;20818;-69
2022/01/15 06:44:20;;;;;;;14.05;8.68;;;;;;;;;;5057961;28;20025;-70
2022/01/15 06:46:46;;;;;;;18.10;8.68;;;;;;;;;;5056321;28;20035;-69
2022/01/15 06:49:11;;;;;;;20.20;10.27;;;;;;;;;;5058119;28;20020;-69
2022/01/15 06:51:36;;;;;;;17.95;8.70;;;;;;;;;;5057806;28;20036;-69
2022/01/15 06:54:02;;;;;;;14.65;8.68;;;;;;;;;;5057554;28;20033;-69
2022/01/15 06:56:27;;;;;;;20.70;10.80;;;;;;;;;;5056176;28;20035;-69
2022/01/15 06:58:53;;;;;;;16.77;10.15;;;;;;;;;;5055270;28;20052;-69
2022/01/15 07:01:18;;;;;;;17.52;10.70;;;;;;;;;;5052484;28;20123;-69
2022/01/15 07:03:43;;;;;;;21.20;11.18;;;;;;;;;;5068413;28;20071;-69
2022/01/15 07:06:09;;;;;;;19.70;10.77;;;;;;;;;;5054659;28;20068;-69
2022/01/15 07:08:34;;;;;;;21.15;11.18;;;;;;;;;;5057405;28;20059;-69
2022/01/15 07:11:00;;;;;;;26.88;13.07;;;;;;;;;;5053787;28;20429;-69
2022/01/15 07:13:26;;;;;;;26.85;12.52;;;;;;;;;;5052661;28;20056;-69
2022/01/15 07:15:52;;;;;;;24.23;11.55;;;;;;;;;;5050015;28;20036;-69
2022/01/15 07:18:17;;;;;;;25.95;10.27;;;;;;;;;;5038219;28;20028;-69
2022/01/15 07:20:43;;;;;;;19.77;9.52;;;;;;;;;;5051520;28;20021;-69
2022/01/15 07:23:09;;;;;;;17.55;9.48;;;;;;;;;;5053627;28;20025;-70
2022/01/15 07:25:34;;;;;;;18.48;9.15;;;;;;;;;;5056523;28;20403;-69
2022/01/15 07:27:59;;;;;;;22.58;10.35;;;;;;;;;;5055603;28;20674;-69
2022/01/15 07:30:25;;;;;;;21.08;10.70;;;;;;;;;;5052489;28;20061;-69
2022/01/15 07:32:50;;;;;;;18.75;10.27;;;;;;;;;;5051023;28;20495;-69
2022/01/15 07:35:16;;;;;;;20.55;10.73;;;;;;;;;;5052613;28;20680;-70
2022/01/15 07:37:41;;;;;;;32.00;13.45;;;;;;;;;;5029314;28;20192;-73
2022/01/15 07:40:06;;;;;;;26.65;13.52;;;;;;;;;;5045952;28;20602;-73
2022/01/15 07:42:36;;;;;;;26.13;13.63;;;;;;;;;;5032357;28;20029;-74
2022/01/15 07:45:09;;;;;;;24.33;12.15;;;;;;;;;;5030454;28;20033;-70
2022/01/15 07:47:34;;;;;;;21.33;11.37;;;;;;;;;;5048411;28;20454;-70
2022/01/15 07:50:01;;;;;;;22.67;11.70;;;;;;;;;;5048482;28;20600;-70
2022/01/15 07:52:26;;;;;;;30.75;12.57;;;;;;;;;;5051357;28;20029;-70
2022/01/15 07:54:51;;;;;;;27.67;13.43;;;;;;;;;;5037634;28;20364;-70
2022/01/15 07:57:16;;;;;;;26.27;12.82;;;;;;;;;;5052037;28;20040;-71
2022/01/15 07:59:42;;;;;;;24.83;11.77;;;;;;;;;;5047972;28;20043;-70
2022/01/15 08:02:07;;;;;;;29.52;11.75;;;;;;;;;;5047076;28;20782;-71
2022/01/15 08:04:32;;;;;;;32.55;12.82;;;;;;;;;;5050931;28;20094;-72
2022/01/15 08:06:58;;;;;;;27.75;12.52;;;;;;;;;;5051804;28;20380;-72
2022/01/15 08:09:23;;;;;;;23.95;11.85;;;;;;;;;;5036906;28;20028;-72
2022/01/15 08:11:48;;;;;;;25.75;12.52;;;;;;;;;;5049127;28;20033;-73
2022/01/15 08:14:14;;;;;;;24.77;12.05;;;;;;;;;;5054555;28;20021;-74
2022/01/15 08:16:39;;;;;;;26.15;13.05;;;;;;;;;;5055847;28;20032;-71
2022/01/15 08:19:04;;;;;;;26.15;12.80;;;;;;;;;;5050447;28;20055;-73
2022/01/15 08:21:30;;;;;;;26.30;12.57;;;;;;;;;;5037366;28;20770;-72
2022/01/15 08:23:55;;;;;;;25.48;12.50;;;;;;;;;;5050853;28;20870;-73
2022/01/15 08:26:20;;;;;;;23.52;11.15;;;;;;;;;;5047680;28;20032;-72
2022/01/15 08:28:46;;;;;;;19.10;10.95;;;;;;;;;;5047575;28;20097;-73
2022/01/15 08:31:11;;;;;;;14.73;8.95;;;;;;;;;;5048258;28;20170;-74
2022/01/15 08:33:36;;;;;;;14.77;8.48;;;;;;;;;;5031641;28;20410;-73
2022/01/15 08:36:02;;;;;;;14.77;9.00;;;;;;;;;;5063950;28;20060;-73
2022/01/15 08:38:27;;;;;;;16.73;10.05;;;;;;;;;;5035319;28;20511;-73
2022/01/15 08:40:52;;;;;;;16.77;9.90;;;;;;;;;;5053427;28;20080;-74
2022/01/15 08:43:18;;;;;;;19.00;10.63;;;;;;;;;;5050413;28;20120;-74
2022/01/15 08:45:43;;;;;;;17.38;10.43;;;;;;;;;;5051892;28;20494;-72
2022/01/15 08:48:09;;;;;;;19.65;11.52;;;;;;;;;;5053587;28;20056;-73
2022/01/15 08:50:35;;;;;;;16.88;10.00;;;;;;;;;;5051986;28;20122;-74
2022/01/15 08:53:00;;;;;;;17.20;10.65;;;;;;;;;;5052032;28;20033;-72
2022/01/15 08:55:29;;;;;;;23.10;11.45;;;;;;;;;;5054196;28;20048;-72
2022/01/15 08:57:55;;;;;;;24.52;12.75;;;;;;;;;;5052788;28;20028;-72
2022/01/15 09:00:20;;;;;;;25.30;12.73;;;;;;;;;;5034560;28;20047;-73
2022/01/15 09:02:47;;;;;;;23.45;12.00;;;;;;;;;;5055001;28;20055;-73
2022/01/15 09:05:13;;;;;;;20.58;11.68;;;;;;;;;;5035591;28;20085;-72
2022/01/15 09:07:39;;;;;;;21.23;12.20;;;;;;;;;;5052329;28;20032;-73
2022/01/15 09:10:04;;;;;;;21.38;11.18;;;;;;;;;;5050974;28;20039;-72
2022/01/15 09:12:29;;;;;;;18.48;10.57;;;;;;;;;;5050853;28;20032;-73
2022/01/15 09:14:58;;;;;;;17.98;9.90;;;;;;;;;;5051801;28;20033;-73
2022/01/15 09:17:24;;;;;;;17.25;10.13;;;;;;;;;;5052268;28;20360;-73
2022/01/15 09:19:50;;;;;;;15.23;9.52;;;;;;;;;;5029550;28;20160;-72
2022/01/15 09:22:15;;;;;;;14.13;9.02;;;;;;;;;;5048910;28;20249;-72
2022/01/15 09:24:44;;;;;;;14.40;8.73;;;;;;;;;;5047977;28;20040;-71
2022/01/15 09:32:34;;;;;;;16.52;9.32;;;;;;;;;;5047202;28;20211;-72
2022/01/15 09:35:00;;;;;;;15.45;9.63;;;;;;;;;;5032021;28;20495;-70
2022/01/15 09:37:26;;;;;;;22.88;10.43;;;;;;;;;;5045290;28;20129;-70
2022/01/15 09:39:51;;;;;;;18.00;11.02;;;;;;;;;;5046494;28;20562;-71
2022/01/15 09:42:16;;;;;;;18.23;10.48;;;;;;;;;;5049843;28;20066;-71
2022/01/15 09:44:42;;;;;;;21.45;10.95;;;;;;;;;;5044566;28;20044;-72
2022/01/15 09:47:09;;;;;;;23.55;11.25;;;;;;;;;;5030811;28;20086;-71
2022/01/15 09:49:35;;;;;;;22.55;11.43;;;;;;;;;;5047207;28;20032;-71
2022/01/15 09:52:01;;;;;;;18.67;10.52;;;;;;;;;;5048822;28;20943;-73
2022/01/15 09:54:26;;;;;;;18.45;10.95;;;;;;;;;;5047454;28;20056;-71
2022/01/15 09:56:52;;;;;;;22.95;11.23;;;;;;;;;;5049215;28;20178;-71
2022/01/15 09:59:17;;;;;;;20.80;12.57;;;;;;;;;;5049120;28;20024;-72
2022/01/15 10:01:43;;;;;;;25.55;13.82;;;;;;;;;;5046124;28;20059;-72
2022/01/15 10:04:08;;;;;;;26.27;13.85;;;;;;;;;;5048590;28;20058;-72
2022/01/15 10:06:34;;;;;;;25.27;13.98;;;;;;;;;;5049678;28;20064;-71
2022/01/15 10:09:07;;;;;;;25.70;14.30;;;;;;;;;;5050003;28;20032;-72
2022/01/15 10:11:39;;;;;;;27.90;15.20;;;;;;;;;;5051437;28;20056;-70
2022/01/15 10:14:05;;;;;;;25.63;14.27;;;;;;;;;;5046708;28;20612;-71
2022/01/15 10:16:30;;;;;;;28.65;14.55;;;;;;;;;;5032799;28;20060;-71
2022/01/15 10:18:55;;;;;;;26.95;14.63;;;;;;;;;;5049291;28;20178;-72
2022/01/15 10:21:26;;;;;;;25.35;14.07;;;;;;;;;;5048952;28;20140;-72
2022/01/15 10:23:58;;;;;;;25.02;14.15;;;;;;;;;;5048954;28;20036;-72
2022/01/15 10:26:25;;;;;;;28.55;13.63;;;;;;;;;;5048900;28;20032;-70
2022/01/15 10:28:55;;;;;;;24.27;13.05;;;;;;;;;;5048333;28;20028;-71
2022/01/15 10:31:23;;;;;;;21.08;12.75;;;;;;;;;;5046971;28;20509;-71
2022/01/15 10:33:49;;;;;;;24.60;13.52;;;;;;;;;;5047151;28;20116;-72
2022/01/15 10:36:19;;;;;;;22.95;12.48;;;;;;;;;;5049111;28;20032;-70
2022/01/15 10:38:44;;;;;;;20.40;11.40;;;;;;;;;;5034976;28;20546;-72
2022/01/15 10:41:09;;;;;;;22.17;11.95;;;;;;;;;;5047593;28;20056;-73
2022/01/15 10:43:35;;;;;;;20.52;12.30;;;;;;;;;;5032191;28;20064;-71
2022/01/15 10:46:03;;;;;;;18.35;11.18;;;;;;;;;;5048897;28;20067;-71
2022/01/15 10:48:34;;;;;;;17.17;10.65;;;;;;;;;;5050848;28;20029;-72
2022/01/15 10:51:05;;;;;;;16.23;10.45;;;;;;;;;;5046627;28;20033;-70
2022/01/15 10:53:37;;;;;;;26.88;14.23;;;;;;;;;;5017658;28;20502;-71
2022/01/15 10:56:04;;;;;;;26.30;14.18;;;;;;;;;;5047549;28;20036;-71
2022/01/15 10:58:29;;;;;;;28.15;14.55;;;;;;;;;;5049103;28;20326;-71
2022/01/15 11:00:55;;;;;;;28.40;16.33;;;;;;;;;;5032789;28;20072;-71
2022/01/15 11:03:20;;;;;;;27.90;15.48;;;;;;;;;;5048834;28;20064;-71
2022/01/15 11:05:49;;;;;;;30.75;16.23;;;;;;;;;;5047801;28;20174;-70
2022/01/15 11:08:27;;;;;;;33.38;18.17;;;;;;;;;;5054225;28;20055;-72
2022/01/15 11:10:53;;;;;;;34.20;18.75;;;;;;;;;;5049006;28;20123;-70
2022/01/15 11:13:24;;;;;;;37.58;18.58;;;;;;;;;;5048456;28;20032;-72
2022/01/15 11:15:54;;;;;;;27.55;16.13;;;;;;;;;;5049266;28;20032;-71
2022/01/15 11:18:24;;;;;;;32.40;16.60;;;;;;;;;;5049855;28;20636;-71
2022/01/15 11:20:51;;;;;;;28.38;16.55;;;;;;;;;;5048965;28;21126;-70
2022/01/15 11:23:18;;;;;;;28.98;17.15;;;;;;;;;;5036006;28;20039;-71
2022/01/15 11:25:44;;;;;;;28.38;16.65;;;;;;;;;;5050889;28;20040;-72
2022/01/15 11:28:09;;;;;;;9.32;6.97;;;;;;;;;;5054499;28;20471;-71
2022/01/15 11:30:34;;;;;;;8.07;5.88;;;;;;;;;;5050415;28;20067;-70
2022/01/15 11:33:00;;;;;;;9.02;5.28;;;;;;;;;;5054862;28;20163;-70
2022/01/15 11:35:40;;;;;;;3.80;3.38;;;;;;;;;;5054262;28;20155;-71
2022/01/15 11:38:06;;;;;;;5.40;3.22;;;;;;;;;;5052764;28;20979;-71
2022/01/15 11:40:46;;;;;;;3.08;2.80;;;;;;;;;;5052079;28;20028;-68
2022/01/15 11:43:23;;;;;;;3.72;3.22;;;;;;;;;;5051849;28;20032;-69
2022/01/15 11:45:49;;;;;;;6.47;2.67;;;;;;;;;;5053658;28;20115;-69
2022/01/15 11:48:21;;;;;;;5.65;3.25;;;;;;;;;;5050994;28;20039;-69
2022/01/15 11:51:15;;;;;;;5.70;3.92;;;;;;;;;;5051671;28;20048;-69
2022/01/15 11:53:54;;;;;;;4.72;3.75;;;;;;;;;;5051701;28;20103;-69
2022/01/15 11:56:21;;;;;;;9.75;6.10;;;;;;;;;;5052678;28;20029;-69
2022/01/15 11:58:46;;;;;;;5.53;4.50;;;;;;;;;;5051458;28;20021;-69
2022/01/15 12:01:37;;;;;;;4.78;4.28;;;;;;;;;;5050261;28;20063;-69
2022/01/15 12:04:32;;;;;;;5.45;4.88;;;;;;;;;;5050797;28;20078;-69
2022/01/15 12:07:00;;;;;;;6.43;4.43;;;;;;;;;;5032690;28;20059;-69
2022/01/15 12:09:42;;;;;;;5.82;4.43;;;;;;;;;;5051270;28;20501;-69
2022/01/15 12:12:39;;;;;;;7.78;5.60;;;;;;;;;;5052077;28;20036;-69
2022/01/15 12:15:05;;;;;;;9.50;5.90;;;;;;;;;;5051821;28;20578;-69
2022/01/15 12:17:42;;;;;;;8.10;6.38;;;;;;;;;;5067634;28;20036;-69
2022/01/15 12:20:25;;;;;;;9.73;6.93;;;;;;;;;;5051002;28;20417;-69
2022/01/15 12:23:01;;;;;;;9.57;6.50;;;;;;;;;;5050652;28;20040;-69
2022/01/15 12:25:26;;;;;;;8.18;6.68;;;;;;;;;;5051823;28;20503;-69
2022/01/15 12:27:58;;;;;;;13.02;7.63;;;;;;;;;;5049106;28;20039;-69
2022/01/15 12:30:27;;;;;;;10.02;7.32;;;;;;;;;;5049928;28;20041;-69
2022/01/15 12:32:53;;;;;;;12.38;7.13;;;;;;;;;;5051282;28;20643;-69
2022/01/15 12:35:23;;;;;;;12.25;7.13;;;;;;;;;;5050361;28;20044;-68
2022/01/15 12:38:03;;;;;;;9.13;7.00;;;;;;;;;;5048528;28;20043;-69
2022/01/15 12:40:41;;;;;;;9.95;6.60;;;;;;;;;;5049954;28;20029;-69
2022/01/15 12:43:32;;;;;;;9.60;7.05;;;;;;;;;;5050862;28;20028;-69
2022/01/15 12:46:10;;;;;;;8.65;6.65;;;;;;;;;;5050724;28;20028;-69
2022/01/15 12:48:36;;;;;;;8.93;7.07;;;;;;;;;;5047952;28;20143;-69
2022/01/15 12:51:08;;;;;;;11.35;7.20;;;;;;;;;;5052728;28;20024;-69
2022/01/15 12:53:35;;;;;;;9.68;7.35;;;;;;;;;;5049677;28;20029;-69
2022/01/15 12:56:01;;;;;;;9.80;7.35;;;;;;;;;;5050387;28;20036;-69
2022/01/15 12:58:27;;;;;;;9.25;7.03;;;;;;;;;;5048330;28;20036;-69
2022/01/15 13:00:53;;;;;;;10.68;7.47;;;;;;;;;;5049639;28;20048;-70
2022/01/15 13:03:20;;;;;;;10.82;7.57;;;;;;;;;;5050431;28;20040;-69
2022/01/15 13:05:53;;;;;;;11.25;7.45;;;;;;;;;;5049350;28;20064;-69
2022/01/15 13:08:30;;;;;;;11.32;7.70;;;;;;;;;;5039072;28;20036;-69
2022/01/15 13:10:59;;;;;;;11.00;8.25;;;;;;;;;;5052752;28;20039;-69
2022/01/15 13:13:45;;;;;;;12.77;8.10;;;;;;;;;;5048646;28;20082;-70
2022/01/15 13:16:21;;;;;;;12.10;8.30;;;;;;;;;;5051924;28;20055;-69
2022/01/15 13:18:54;;;;;;;11.23;8.15;;;;;;;;;;5048830;28;20046;-70
2022/01/15 13:21:28;;;;;;;14.40;9.52;;;;;;;;;;5051517;28;20552;-70
2022/01/15 13:24:07;;;;;;;14.60;9.35;;;;;;;;;;5052307;28;20032;-69
2022/01/15 13:26:34;;;;;;;11.68;8.30;;;;;;;;;;5050781;28;20120;-69
2022/01/15 13:29:04;;;;;;;15.18;9.80;;;;;;;;;;5048921;28;20035;-69
2022/01/15 13:31:31;;;;;;;11.93;9.15;;;;;;;;;;5035051;28;20152;-70
2022/01/15 13:34:09;;;;;;;13.23;9.68;;;;;;;;;;5037081;28;20415;-70
2022/01/15 13:36:35;;;;;;;13.77;9.45;;;;;;;;;;5051423;28;20028;-70
2022/01/15 13:39:00;;;;;;;14.68;9.48;;;;;;;;;;5049476;28;20387;-70
2022/01/15 13:41:26;;;;;;;10.45;8.40;;;;;;;;;;5050088;28;20445;-70
2022/01/15 13:43:54;;;;;;;10.43;8.48;;;;;;;;;;5048904;28;20089;-68
2022/01/15 13:46:28;;;;;;;11.93;8.90;;;;;;;;;;5047247;28;20454;-67
2022/01/15 13:49:04;;;;;;;9.82;8.70;;;;;;;;;;5049291;28;20028;-67
2022/01/15 13:54:14;;;;;;;10.88;8.60;;;;;;;;;;5049906;28;20034;-67
2022/01/15 13:56:41;;;;;;;10.52;8.57;;;;;;;;;;5050367;28;20040;-68
2022/01/15 13:59:07;;;;;;;11.48;9.27;;;;;;;;;;5047477;28;20510;-67
2022/01/15 14:01:56;;;;;;;10.85;9.57;;;;;;;;;;5047904;28;20063;-68
2022/01/15 14:04:32;;;;;;;12.23;10.90;;;;;;;;;;5049070;28;20025;-68
2022/01/15 14:07:03;;;;;;;14.10;11.48;;;;;;;;;;5048900;28;20036;-67
2022/01/15 14:09:29;;;;;;;14.55;11.63;;;;;;;;;;5048767;28;20123;-67
2022/01/15 14:12:02;;;;;;;14.98;11.98;;;;;;;;;;5048035;28;20090;-67
2022/01/15 14:14:28;;;;;;;14.33;12.33;;;;;;;;;;5050863;28;20075;-70
2022/01/15 14:16:55;;;;;;;15.10;11.73;;;;;;;;;;5047954;28;20044;-67
2022/01/15 14:22:25;;;;;;;17.83;13.93;;;;;;;;;;5035506;28;20300;-67
2022/01/15 14:24:52;;;;;;;17.98;14.55;;;;;;;;;;5049691;28;20502;-70
2022/01/15 14:27:22;;;;;;;20.73;14.15;;;;;;;;;;5049408;28;20028;-67
2022/01/15 14:29:51;;;;;;;18.08;14.68;;;;;;;;;;5047760;28;20033;-70
2022/01/15 14:32:17;;;;;;;17.90;13.75;;;;;;;;;;5047774;28;20099;-70
2022/01/15 14:34:42;;;;;;;19.42;13.48;;;;;;;;;;5049023;28;20103;-70
2022/01/15 14:37:09;;;;;;;20.65;14.10;;;;;;;;;;5049660;28;20029;-69
2022/01/15 14:39:34;;;;;;;21.83;15.25;;;;;;;;;;5049223;28;20119;-69
2022/01/15 14:42:00;;;;;;;21.90;15.32;;;;;;;;;;5048816;28;20024;-69
2022/01/15 14:44:25;;;;;;;24.88;15.65;;;;;;;;;;5049404;28;20061;-69
2022/01/15 14:46:50;;;;;;;24.30;15.68;;;;;;;;;;5051167;28;20064;-69
2022/01/15 14:49:16;;;;;;;23.20;15.57;;;;;;;;;;5049868;28;20115;-69
2022/01/15 14:51:41;;;;;;;28.98;16.17;;;;;;;;;;5048648;28;20054;-69
2022/01/15 14:54:06;;;;;;;26.13;16.30;;;;;;;;;;5048303;28;20051;-69
2022/01/15 14:56:32;;;;;;;24.75;15.88;;;;;;;;;;5051172;28;20755;-69
2022/01/15 14:58:57;;;;;;;24.65;16.40;;;;;;;;;;5050489;28;20039;-69